Time;durP1;ratioP1;P1;durP2;ratioP2;P2;SDS_P1;SDS_P2;PMS_P1;PMS_P2;Temp;Humidity;BMP_temperature;BMP_pressure;BME280_temperature;BME280_humidity;BME280_pressure;Samples;Min_cycle;Max_cycle;Signal;HPM_P1;HPM_P2
2022/08/03 00:00:23;;;;;;;;;;;;;;;27.86;38.02;99370.00;2086978;28;19920;-57
2022/08/03 00:01:23;;;;;;;;;;;;;;;27.85;38.08;99379.38;2089787;28;19958;-57
2022/08/03 00:02:23;;;;;;;;;;;;;;;27.84;38.30;99383.22;2087401;28;19923;-57
2022/08/03 00:03:24;;;;;;;;;;;;;;;27.85;38.22;99379.38;2095626;28;19968;-55
2022/08/03 00:04:24;;;;;;;;;;;;;;;27.84;38.06;99383.22;2089454;28;19912;-57
2022/08/03 00:05:24;;;;;;;;;;;;;;;27.84;38.06;99383.22;2094541;28;20412;-56
2022/08/03 00:06:25;;;;;;;;;;;;;;;27.83;37.88;99381.50;2091559;28;19944;-54
2022/08/03 00:07:25;;;;;;;;;;;;;;;27.82;37.89;99380.69;2091298;28;20245;-57
2022/08/03 00:08:25;;;;;;;;;;;;;;;27.82;37.91;99375.13;2093919;28;19916;-56
2022/08/03 00:09:25;;;;;;;;;;;;;;;27.83;37.76;99381.50;2090693;28;20336;-56
2022/08/03 00:10:26;;;;;;;;;;;;;;;27.83;38.02;99384.28;2092544;28;20192;-57
2022/08/03 00:11:26;;;;;;;;;;;;;;;27.82;37.75;99380.69;2093241;28;19916;-56
2022/08/03 00:12:26;;;;;;;;;;;;;;;27.82;37.83;99379.81;2090932;28;19922;-56
2022/08/03 00:13:27;;;;;;;;;;;;;;;27.83;37.75;99376.84;2093662;28;20316;-56
2022/08/03 00:14:27;;;;;;;;;;;;;;;27.83;37.78;99387.06;2088548;28;20310;-57
2022/08/03 00:15:28;;;;;;;;;;;;;;;27.83;37.92;99387.06;2087007;28;19952;-56
2022/08/03 00:16:28;;;;;;;;;;;;;;;27.83;37.67;99384.28;2092085;28;20319;-56
2022/08/03 00:17:29;;;;;;;;;;;;;;;27.83;37.68;99387.06;2089699;28;19920;-55
2022/08/03 00:18:29;;;;;;;;;;;;;;;27.82;37.67;99383.44;2092197;28;20013;-56
2022/08/03 00:19:29;;;;;;;;;;;;;;;27.82;37.74;99383.44;2087619;28;19962;-57
2022/08/03 00:25:23;;;;;;;;;;;;;;;27.82;37.58;99385.34;2090869;28;19951;-57
2022/08/03 00:26:24;;;;;;;;;;;;;;;27.80;37.97;99377.25;2090651;28;19916;-56
2022/08/03 00:27:24;;;;;;;;;;;;;;;27.79;37.76;99387.47;2087748;28;20607;-56
2022/08/03 00:28:24;;;;;;;;;;;;;;;27.79;37.75;99386.63;2088265;28;19916;-57
2022/08/03 00:29:24;;;;;;;;;;;;;;;27.79;37.98;99381.94;2093866;28;20319;-56
2022/08/03 00:30:25;;;;;;;;;;;;;;;27.78;37.69;99379.38;2090129;28;19939;-56
2022/08/03 00:31:25;;;;;;;;;;;;;;;27.79;37.75;99375.56;2091042;28;19915;-57
2022/08/03 00:32:25;;;;;;;;;;;;;;;27.78;37.84;99374.72;2091660;28;20050;-56
2022/08/03 00:33:26;;;;;;;;;;;;;;;27.78;37.79;99374.72;2094903;28;19927;-55
2022/08/03 00:34:26;;;;;;;;;;;;;;;27.78;37.75;99374.72;2091915;28;20064;-56
2022/08/03 00:35:27;;;;;;;;;;;;;;;27.78;37.93;99374.72;2091690;28;19939;-57
2022/08/03 00:36:27;;;;;;;;;;;;;;;27.78;37.91;99369.19;2092146;28;20300;-55
2022/08/03 00:37:28;;;;;;;;;;;;;;;27.77;37.84;99378.53;2093339;28;20428;-56
2022/08/03 00:38:28;;;;;;;;;;;;;;;27.77;37.80;99378.53;2091154;28;19908;-56
2022/08/03 00:39:28;;;;;;;;;;;;;;;27.77;37.95;99378.53;2093297;28;19915;-56
2022/08/03 00:40:28;;;;;;;;;;;;;;;27.78;37.84;99373.84;2091726;28;19966;-55
2022/08/03 00:41:29;;;;;;;;;;;;;;;27.76;37.92;99376.84;2090000;28;20042;-55
2022/08/03 00:42:29;;;;;;;;;;;;;;;27.76;38.13;99376.84;2092189;28;19911;-56
2022/08/03 00:43:29;;;;;;;;;;;;;;;27.76;37.93;99378.78;2092010;28;19916;-57
2022/08/03 00:44:30;;;;;;;;;;;;;;;27.75;38.05;99375.16;2091919;28;20135;-57
2022/08/03 00:45:31;;;;;;;;;;;;;;;27.75;37.89;99379.84;2090859;28;19916;-56
2022/08/03 00:46:32;;;;;;;;;;;;;;;27.75;37.85;99377.06;2089163;28;20305;-57
2022/08/03 00:47:32;;;;;;;;;;;;;;;27.76;37.84;99376.84;2091355;28;19912;-56
2022/08/03 00:48:33;;;;;;;;;;;;;;;27.75;37.89;99377.06;2095473;28;19912;-55
2022/08/03 00:49:33;;;;;;;;;;;;;;;27.76;37.89;99370.47;2085132;28;19928;-56
2022/08/03 00:50:34;;;;;;;;;;;;;;;27.74;37.89;99379.00;2088127;28;20135;-55
2022/08/03 00:51:34;;;;;;;;;;;;;;;27.75;37.82;99371.53;2087596;28;19978;-56
2022/08/03 00:52:35;;;;;;;;;;;;;;;27.74;37.91;99367.94;2089676;28;20292;-56
2022/08/03 00:53:36;;;;;;;;;;;;;;;27.74;38.00;99362.38;2085691;28;19909;-57
2022/08/03 00:54:37;;;;;;;;;;;;;;;27.74;37.86;99370.69;2092032;28;19924;-57
2022/08/03 00:55:38;;;;;;;;;;;;;;;27.74;37.75;99362.38;2092293;28;20312;-56
2022/08/03 00:56:39;;;;;;;;;;;;;;;27.74;37.60;99361.53;2086478;28;20309;-55
2022/08/03 00:57:41;;;;;;;;;;;;;;;27.74;37.85;99370.69;2094037;28;19908;-57
2022/08/03 00:58:42;;;;;;;;;;;;;;;27.74;37.71;99367.09;2088329;28;19954;-57
2022/08/03 00:59:43;;;;;;;;;;;;;;;27.73;37.69;99366.25;2089072;28;19944;-56
2022/08/03 01:00:43;;;;;;;;;;;;;;;27.73;37.68;99366.25;2091394;28;19916;-56
2022/08/03 01:01:43;;;;;;;;;;;;;;;27.73;37.97;99366.25;2095940;28;20015;-55
2022/08/03 01:02:44;;;;;;;;;;;;;;;27.74;37.68;99370.69;2092055;28;19908;-56
2022/08/03 01:03:44;;;;;;;;;;;;;;;27.72;37.73;99364.53;2094976;28;19926;-57
2022/08/03 01:04:44;;;;;;;;;;;;;;;27.73;37.90;99371.78;2090380;28;19908;-56
2022/08/03 01:05:56;;;;;;;;;;;;;;;27.72;37.69;99375.59;2094759;28;19916;-57
2022/08/03 01:07:05;;;;;;;;;;;;;;;27.71;37.67;99368.38;2092572;28;20158;-55
2022/08/03 01:13:33;;;;;;;;;;;;;;;27.71;37.89;99368.38;2073623;28;19921;-56
2022/08/03 01:14:56;;;;;;;;;;;;;;;27.71;37.79;99368.38;2069835;28;19921;-56
2022/08/03 01:16:05;;;;;;;;;;;;;;;27.71;37.97;99362.00;2076373;28;19916;-56
2022/08/03 01:17:11;;;;;;;;;;;;;;;27.70;37.96;99369.44;2076442;28;20475;-55
2022/08/03 01:18:16;;;;;;;;;;;;;;;27.70;38.08;99363.06;2074746;28;20466;-55
2022/08/03 01:19:16;;;;;;;;;;;;;;;27.70;37.92;99361.13;2073741;28;19919;-55
2022/08/03 01:20:18;;;;;;;;;;;;;;;27.69;37.92;99353.91;2076846;28;19927;-57
2022/08/03 01:21:38;;;;;;;;;;;;;;;27.70;37.85;99360.28;2075126;28;19917;-55
2022/08/03 01:22:50;;;;;;;;;;;;;;;27.70;37.92;99363.91;2075803;28;19917;-56
2022/08/03 01:24:14;;;;;;;;;;;;;;;27.69;37.77;99359.44;2076733;28;20635;-56
2022/08/03 01:25:27;;;;;;;;;;;;;;;27.68;37.79;99363.28;2076010;28;20458;-57
2022/08/03 01:26:33;;;;;;;;;;;;;;;27.68;37.74;99346.66;2075484;28;20023;-55
2022/08/03 01:27:53;;;;;;;;;;;;;;;27.68;37.85;99354.97;2062350;28;20064;-56
2022/08/03 01:28:53;;;;;;;;;;;;;;;27.70;37.83;99361.13;2070663;28;20566;-57
2022/08/03 01:29:59;;;;;;;;;;;;;;;27.69;37.64;99359.44;2075105;28;20376;-56
2022/08/03 01:31:02;;;;;;;;;;;;;;;27.70;37.74;99358.34;2074833;28;19916;-55
2022/08/03 01:32:14;;;;;;;;;;;;;;;27.70;37.64;99349.22;2077534;28;19924;-55
2022/08/03 01:33:26;;;;;;;;;;;;;;;27.70;37.69;99351.97;2074134;28;19916;-56
2022/08/03 01:34:28;;;;;;;;;;;;;;;27.69;37.84;99353.91;2073935;28;19942;-54
2022/08/03 01:35:38;;;;;;;;;;;;;;;27.69;37.90;99353.91;2076598;28;19939;-57
2022/08/03 01:36:42;;;;;;;;;;;;;;;27.69;37.88;99353.06;2069896;28;19924;-57
2022/08/03 01:37:53;;;;;;;;;;;;;;;27.69;37.99;99353.91;2068966;28;20145;-57
2022/08/03 01:38:55;;;;;;;;;;;;;;;27.66;37.84;99346.06;2063830;28;19987;-56
2022/08/03 01:39:56;;;;;;;;;;;;;;;27.67;37.93;99353.28;2064636;28;19921;-56
2022/08/03 01:41:00;;;;;;;;;;;;;;;27.67;38.05;99350.50;2076413;28;19916;-56
2022/08/03 01:42:06;;;;;;;;;;;;;;;27.67;37.89;99347.75;2075186;28;20243;-55
2022/08/03 01:43:09;;;;;;;;;;;;;;;27.68;37.98;99351.34;2073013;28;19966;-56
2022/08/03 01:44:11;;;;;;;;;;;;;;;27.68;37.92;99357.72;2076202;28;19916;-56
2022/08/03 01:45:12;;;;;;;;;;;;;;;27.68;37.79;99352.19;2075706;28;19912;-55
2022/08/03 01:46:14;;;;;;;;;;;;;;;27.68;38.07;99351.34;2075267;28;19913;-56
2022/08/03 01:47:15;;;;;;;;;;;;;;;27.67;37.92;99356.06;2093831;28;20009;-55
2022/08/03 01:48:16;;;;;;;;;;;;;;;27.68;37.96;99362.44;2094157;28;19923;-56
2022/08/03 01:49:16;;;;;;;;;;;;;;;27.67;38.10;99349.66;2090131;28;19920;-56
2022/08/03 01:50:22;;;;;;;;;;;;;;;27.66;37.92;99359.03;2093553;28;19916;-55
2022/08/03 01:51:23;;;;;;;;;;;;;;;27.66;37.99;99357.13;2093596;28;19920;-55
2022/08/03 01:52:24;;;;;;;;;;;;;;;27.66;38.12;99354.38;2094158;28;19950;-56
2022/08/03 01:53:25;;;;;;;;;;;;;;;27.66;38.05;99348.81;2093233;28;19916;-56
2022/08/03 01:54:27;;;;;;;;;;;;;;;27.67;37.89;99356.06;2093016;28;19962;-56
2022/08/03 01:55:28;;;;;;;;;;;;;;;27.68;37.83;99346.66;2091269;28;19922;-56
2022/08/03 01:56:29;;;;;;;;;;;;;;;27.67;38.03;99349.66;2094119;28;19923;-55
2022/08/03 01:57:29;;;;;;;;;;;;;;;27.68;38.11;99357.72;2090381;28;19916;-56
2022/08/03 01:58:31;;;;;;;;;;;;;;;27.67;38.11;99350.50;2090736;28;20276;-56
2022/08/03 01:59:33;;;;;;;;;;;;;;;27.67;38.12;99350.50;2091021;28;19959;-57
2022/08/03 02:00:35;;;;;;;;;;;;;;;27.68;38.18;99346.66;2091202;28;19950;-55
2022/08/03 02:01:36;;;;;;;;;;;;;;;27.67;37.95;99350.50;2095837;28;20279;-56
2022/08/03 02:02:37;;;;;;;;;;;;;;;27.68;37.95;99343.03;2092365;28;19927;-56
2022/08/03 02:03:40;;;;;;;;;;;;;;;27.68;38.19;99352.19;2089732;28;19927;-55
2022/08/03 02:04:45;;;;;;;;;;;;;;;27.68;37.98;99345.81;2092546;28;20130;-55
2022/08/03 02:05:47;;;;;;;;;;;;;;;27.68;38.07;99343.88;2086298;28;20511;-55
2022/08/03 02:06:47;;;;;;;;;;;;;;;27.69;37.96;99344.75;2095180;28;19959;-57
2022/08/03 02:07:48;;;;;;;;;;;;;;;27.67;38.03;99344.97;2090621;28;19923;-57
2022/08/03 02:08:51;;;;;;;;;;;;;;;27.68;38.11;99343.88;2087171;28;19952;-56
2022/08/03 02:09:53;;;;;;;;;;;;;;;27.67;37.93;99341.38;2092547;28;19920;-55
2022/08/03 02:10:55;;;;;;;;;;;;;;;27.66;38.01;99348.81;2091695;28;19920;-55
2022/08/03 02:11:57;;;;;;;;;;;;;;;27.67;37.97;99344.13;2088109;28;19909;-55
2022/08/03 02:12:59;;;;;;;;;;;;;;;27.66;37.89;99348.81;2090465;28;20257;-55
2022/08/03 02:14:02;;;;;;;;;;;;;;;27.65;37.98;99341.56;2088108;28;20416;-57
2022/08/03 02:15:03;;;;;;;;;;;;;;;27.65;37.93;99347.13;2089736;28;20465;-57
2022/08/03 02:16:04;;;;;;;;;;;;;;;27.64;38.02;99350.97;2089641;28;19954;-56
2022/08/03 02:17:06;;;;;;;;;;;;;;;27.64;37.94;99350.97;2086309;28;19922;-56
2022/08/03 02:18:09;;;;;;;;;;;;;;;27.64;38.09;99345.44;2094221;28;19916;-57
2022/08/03 02:19:10;;;;;;;;;;;;;;;27.62;38.02;99347.56;2091724;28;20038;-55
2022/08/03 02:20:11;;;;;;;;;;;;;;;27.63;38.02;99343.72;2095946;28;19935;-56
2022/08/03 02:21:12;;;;;;;;;;;;;;;27.63;38.15;99348.41;2089330;28;19911;-56
2022/08/03 02:22:13;;;;;;;;;;;;;;;27.63;38.06;99348.41;2091784;28;19963;-56
2022/08/03 02:23:17;;;;;;;;;;;;;;;27.62;38.05;99346.72;2087141;28;19969;-55
2022/08/03 02:24:17;;;;;;;;;;;;;;;27.62;38.24;99347.56;2088457;28;20467;-57
2022/08/03 02:25:17;;;;;;;;;;;;;;;27.63;38.06;99349.25;2091453;28;20254;-55
2022/08/03 02:26:18;;;;;;;;;;;;;;;27.63;38.15;99342.88;2080727;28;19917;-56
2022/08/03 02:27:21;;;;;;;;;;;;;;;27.63;38.04;99349.25;2085311;28;20233;-57
2022/08/03 02:28:25;;;;;;;;;;;;;;;27.63;38.01;99346.50;2091178;28;20353;-56
2022/08/03 02:29:28;;;;;;;;;;;;;;;27.63;38.06;99348.41;2092052;28;20400;-56
2022/08/03 02:30:37;;;;;;;;;;;;;;;27.63;37.96;99352.03;2095652;28;19916;-56
2022/08/03 02:31:38;;;;;;;;;;;;;;;27.63;38.12;99349.25;2092403;28;19922;-57
2022/08/03 02:32:39;;;;;;;;;;;;;;;27.64;37.98;99350.13;2091749;28;20289;-57
2022/08/03 02:33:47;;;;;;;;;;;;;;;27.64;38.06;99345.44;2094568;28;20742;-55
2022/08/03 02:34:50;;;;;;;;;;;;;;;27.63;38.12;99349.25;2089560;28;19923;-55
2022/08/03 02:35:51;;;;;;;;;;;;;;;27.62;38.08;99347.56;2084891;28;19934;-57
2022/08/03 02:36:52;;;;;;;;;;;;;;;27.63;38.17;99349.25;2094556;28;20048;-55
2022/08/03 02:37:56;;;;;;;;;;;;;;;27.63;38.29;99343.72;2086765;28;19967;-57
2022/08/03 02:38:58;;;;;;;;;;;;;;;27.62;38.23;99342.03;2087757;28;19916;-55
2022/08/03 02:40:04;;;;;;;;;;;;;;;27.63;38.12;99349.25;2085931;28;19927;-55
2022/08/03 02:41:07;;;;;;;;;;;;;;;27.62;38.09;99347.56;2093364;28;19939;-57
2022/08/03 02:42:09;;;;;;;;;;;;;;;27.62;38.10;99349.50;2091614;28;19943;-56
2022/08/03 02:43:11;;;;;;;;;;;;;;;27.62;38.17;99347.56;2084625;28;19942;-56
2022/08/03 02:44:12;;;;;;;;;;;;;;;27.61;38.31;99351.44;2088245;28;19916;-55
2022/08/03 02:45:14;;;;;;;;;;;;;;;27.61;38.15;99345.88;2094469;28;19963;-56
2022/08/03 02:46:17;;;;;;;;;;;;;;;27.61;38.29;99345.88;2087061;28;20163;-56
2022/08/03 02:47:20;;;;;;;;;;;;;;;27.62;38.31;99336.50;2086687;28;20009;-55
2022/08/03 02:48:22;;;;;;;;;;;;;;;27.62;38.08;99346.72;2086210;28;19927;-56
2022/08/03 02:49:23;;;;;;;;;;;;;;;27.61;38.20;99342.25;2090634;28;19909;-56
2022/08/03 02:50:25;;;;;;;;;;;;;;;27.61;38.27;99345.88;2093138;28;20042;-57
2022/08/03 02:51:27;;;;;;;;;;;;;;;27.61;38.15;99343.13;2094693;28;19908;-57
2022/08/03 02:52:28;;;;;;;;;;;;;;;27.61;38.20;99345.88;2091133;28;20207;-57
2022/08/03 02:53:29;;;;;;;;;;;;;;;27.60;38.27;99344.16;2093952;28;20295;-56
2022/08/03 02:54:31;;;;;;;;;;;;;;;27.61;38.06;99345.88;2087075;28;19958;-56
2022/08/03 02:55:33;;;;;;;;;;;;;;;27.60;38.23;99343.34;2092578;28;19916;-55
2022/08/03 02:56:34;;;;;;;;;;;;;;;27.61;38.35;99343.13;2092286;28;19982;-55
2022/08/03 02:57:36;;;;;;;;;;;;;;;27.60;38.22;99344.16;2091829;28;19916;-56
2022/08/03 02:58:37;;;;;;;;;;;;;;;27.60;38.23;99349.72;2091633;28;19920;-56
2022/08/03 02:59:39;;;;;;;;;;;;;;;27.59;38.38;99345.25;2091161;28;20029;-55
2022/08/03 03:00:40;;;;;;;;;;;;;;;27.59;38.32;99342.50;2093417;28;19916;-56
2022/08/03 03:01:40;;;;;;;;;;;;;;;27.60;38.21;99352.47;2092515;28;19927;-57
2022/08/03 03:02:41;;;;;;;;;;;;;;;27.60;38.35;99352.47;2094581;28;19916;-56
2022/08/03 03:03:41;;;;;;;;;;;;;;;27.61;38.42;99356.09;2091251;28;19939;-57
2022/08/03 03:04:42;;;;;;;;;;;;;;;27.60;38.39;99346.94;2090144;28;19916;-55
2022/08/03 03:05:43;;;;;;;;;;;;;;;27.60;38.32;99348.88;2092667;28;19923;-56
2022/08/03 03:06:44;;;;;;;;;;;;;;;27.60;38.35;99344.16;2092046;28;20014;-56
2022/08/03 03:07:45;;;;;;;;;;;;;;;27.61;38.46;99347.78;2093005;28;19923;-56
2022/08/03 03:08:45;;;;;;;;;;;;;;;27.60;38.22;99346.94;2091245;28;20345;-55
2022/08/03 03:09:46;;;;;;;;;;;;;;;27.61;38.20;99345.88;2094263;28;19922;-55
2022/08/03 03:10:47;;;;;;;;;;;;;;;27.60;38.49;99344.16;2089546;28;19916;-56
2022/08/03 03:11:48;;;;;;;;;;;;;;;27.61;38.16;99354.19;2095093;28;19916;-56
2022/08/03 03:12:54;;;;;;;;;;;;;;;27.60;38.13;99349.72;2089877;28;20435;-57
2022/08/03 03:13:55;;;;;;;;;;;;;;;27.60;38.31;99349.72;2090935;28;19923;-55
2022/08/03 03:14:56;;;;;;;;;;;;;;;27.60;38.27;99354.41;2093291;28;19916;-56
2022/08/03 03:15:59;;;;;;;;;;;;;;;27.60;38.25;99349.72;2090799;28;19980;-55
2022/08/03 03:17:00;;;;;;;;;;;;;;;27.60;38.24;99360.78;2094764;28;19916;-56
2022/08/03 03:18:01;;;;;;;;;;;;;;;27.60;38.31;99354.41;2091286;28;20313;-55
2022/08/03 03:19:02;;;;;;;;;;;;;;;27.59;38.24;99356.34;2092299;28;19923;-56
2022/08/03 03:20:03;;;;;;;;;;;;;;;27.59;38.22;99353.56;2090035;28;20260;-57
2022/08/03 03:21:03;;;;;;;;;;;;;;;27.58;38.39;99344.41;2087663;28;19931;-57
2022/08/03 03:22:05;;;;;;;;;;;;;;;27.59;38.31;99348.03;2088147;28;20406;-55
2022/08/03 03:23:07;;;;;;;;;;;;;;;27.58;38.44;99357.38;2090469;28;19962;-57
2022/08/03 03:24:08;;;;;;;;;;;;;;;27.57;38.40;99355.69;2098729;28;19908;-55
2022/08/03 03:25:09;;;;;;;;;;;;;;;27.58;38.27;99354.63;2091798;28;20350;-55
2022/08/03 03:26:12;;;;;;;;;;;;;;;27.58;38.43;99351.84;2090847;28;19916;-56
2022/08/03 03:27:13;;;;;;;;;;;;;;;27.58;38.32;99357.38;2094754;28;19908;-56
2022/08/03 03:28:14;;;;;;;;;;;;;;;27.56;38.47;99354.84;2089173;28;19921;-56
2022/08/03 03:29:15;;;;;;;;;;;;;;;27.56;38.41;99356.75;2092472;28;19916;-56
2022/08/03 03:30:15;;;;;;;;;;;;;;;27.55;38.38;99357.84;2092385;28;19923;-56
2022/08/03 03:31:15;;;;;;;;;;;;;;;27.56;38.24;99354.84;2089912;28;19920;-56
2022/08/03 03:32:16;;;;;;;;;;;;;;;27.56;38.36;99360.41;2094367;28;19963;-56
2022/08/03 03:33:16;;;;;;;;;;;;;;;27.54;38.23;99351.47;2091829;28;20305;-56
2022/08/03 03:34:17;;;;;;;;;;;;;;;27.55;38.33;99353.16;2093054;28;19920;-56
2022/08/03 03:35:17;;;;;;;;;;;;;;;27.55;38.42;99355.06;2092406;28;19955;-57
2022/08/03 03:36:18;;;;;;;;;;;;;;;27.55;38.50;99346.78;2092628;28;19916;-56
2022/08/03 03:37:18;;;;;;;;;;;;;;;27.54;38.50;99350.63;2094156;28;19916;-56
2022/08/03 03:38:19;;;;;;;;;;;;;;;27.54;38.42;99351.47;2091156;28;19916;-55
2022/08/03 03:39:19;;;;;;;;;;;;;;;27.54;38.43;99350.63;2093264;28;19923;-55
2022/08/03 03:40:20;;;;;;;;;;;;;;;27.55;38.17;99352.31;2093828;28;19927;-56
2022/08/03 03:41:20;;;;;;;;;;;;;;;27.55;38.27;99346.78;2091382;28;20297;-56
2022/08/03 03:42:21;;;;;;;;;;;;;;;27.54;38.32;99350.63;2091541;28;20288;-56
2022/08/03 03:43:22;;;;;;;;;;;;;;;27.55;38.45;99346.78;2093045;28;19942;-56
2022/08/03 03:44:27;;;;;;;;;;;;;;;27.55;38.20;99346.78;2091608;28;19920;-57
2022/08/03 03:45:29;;;;;;;;;;;;;;;27.55;38.38;99342.06;2091172;28;20032;-56
2022/08/03 03:46:30;;;;;;;;;;;;;;;27.54;38.20;99350.63;2093154;28;19915;-56
2022/08/03 03:47:32;;;;;;;;;;;;;;;27.56;38.24;99348.44;2091486;28;19919;-56
2022/08/03 03:48:32;;;;;;;;;;;;;;;27.55;38.35;99349.53;2093263;28;19916;-55
2022/08/03 03:49:33;;;;;;;;;;;;;;;27.55;38.34;99349.53;2092166;28;19916;-56
2022/08/03 03:50:34;;;;;;;;;;;;;;;27.54;38.32;99350.63;2089231;28;20072;-57
2022/08/03 03:51:35;;;;;;;;;;;;;;;27.54;38.33;99350.63;2093113;28;19927;-56
2022/08/03 03:52:35;;;;;;;;;;;;;;;27.54;38.43;99350.63;2087620;28;19916;-56
2022/08/03 03:53:35;;;;;;;;;;;;;;;27.53;38.32;99348.91;2085362;28;19920;-55
2022/08/03 03:54:40;;;;;;;;;;;;;;;27.54;38.55;99350.63;2090915;28;19942;-55
2022/08/03 03:55:40;;;;;;;;;;;;;;;27.53;38.47;99348.91;2089763;28;19999;-57
2022/08/03 03:56:41;;;;;;;;;;;;;;;27.54;38.32;99350.63;2093500;28;20497;-56
2022/08/03 03:57:41;;;;;;;;;;;;;;;27.53;38.41;99348.91;2091672;28;19950;-55
2022/08/03 03:58:41;;;;;;;;;;;;;;;27.53;38.18;99354.44;2091236;28;19908;-57
2022/08/03 03:59:41;;;;;;;;;;;;;;;27.53;38.56;99354.44;2086212;28;19919;-55
2022/08/03 04:00:43;;;;;;;;;;;;;;;27.54;38.28;99350.63;2093709;28;19943;-56
2022/08/03 04:01:43;;;;;;;;;;;;;;;27.53;38.29;99357.22;2086999;28;20327;-55
2022/08/03 04:02:44;;;;;;;;;;;;;;;27.53;38.33;99348.91;2093228;28;19908;-57
2022/08/03 04:03:45;;;;;;;;;;;;;;;27.53;38.60;99348.91;2090240;28;19966;-57
2022/08/03 04:11:20;;;;;;;;;;;;;;;27.52;38.54;99358.28;2084815;28;20014;-55
2022/08/03 04:12:21;;;;;;;;;;;;;;;27.51;38.44;99364.88;2088192;28;19947;-56
2022/08/03 04:13:23;;;;;;;;;;;;;;;27.52;38.27;99363.84;2088006;28;19922;-56
2022/08/03 04:14:30;;;;;;;;;;;;;;;27.51;38.51;99370.41;2093757;28;20089;-56
2022/08/03 04:15:32;;;;;;;;;;;;;;;27.51;38.37;99368.53;2093048;28;20104;-54
2022/08/03 04:16:37;;;;;;;;;;;;;;;27.50;38.32;99365.97;2092397;28;19924;-55
2022/08/03 04:17:38;;;;;;;;;;;;;;;27.51;38.54;99367.66;2085647;28;19966;-56
2022/08/03 04:18:40;;;;;;;;;;;;;;;27.52;38.61;99370.22;2086733;28;20025;-56
2022/08/03 04:19:51;;;;;;;;;;;;;;;27.51;38.34;99367.66;2086621;28;19916;-57
2022/08/03 04:20:52;;;;;;;;;;;;;;;27.51;38.53;99367.66;2086972;28;19909;-55
2022/08/03 04:21:54;;;;;;;;;;;;;;;27.52;38.53;99369.38;2089394;28;20330;-57
2022/08/03 04:22:55;;;;;;;;;;;;;;;27.51;38.34;99367.66;2094014;28;19916;-57
2022/08/03 04:23:59;;;;;;;;;;;;;;;27.51;38.26;99370.41;2093632;28;20279;-57
2022/08/03 04:25:01;;;;;;;;;;;;;;;27.51;38.28;99373.19;2090706;28;19916;-56
2022/08/03 04:26:04;;;;;;;;;;;;;;;27.50;38.26;99371.50;2091652;28;19916;-56
2022/08/03 04:27:06;;;;;;;;;;;;;;;27.48;38.41;99368.09;2092951;28;20289;-56
2022/08/03 04:28:07;;;;;;;;;;;;;;;27.50;38.26;99377.88;2088337;28;19916;-56
2022/08/03 04:29:09;;;;;;;;;;;;;;;27.50;38.46;99375.13;2090987;28;19916;-56
2022/08/03 04:30:10;;;;;;;;;;;;;;;27.50;38.40;99374.28;2087478;28;19967;-56
2022/08/03 04:31:12;;;;;;;;;;;;;;;27.50;38.49;99382.56;2093459;28;20010;-56
2022/08/03 04:32:12;;;;;;;;;;;;;;;27.50;38.36;99375.13;2097005;28;20338;-55
2022/08/03 04:33:15;;;;;;;;;;;;;;;27.49;38.61;99376.19;2088887;28;19916;-56
2022/08/03 04:34:15;;;;;;;;;;;;;;;27.49;38.35;99376.19;2087931;28;19931;-54
2022/08/03 04:35:17;;;;;;;;;;;;;;;27.49;38.59;99369.81;2090283;28;20393;-56
2022/08/03 04:36:20;;;;;;;;;;;;;;;27.48;38.60;99366.19;2091008;28;20367;-56
2022/08/03 04:37:29;;;;;;;;;;;;;;;27.48;38.32;99379.19;2089980;28;19974;-55
2022/08/03 04:38:31;;;;;;;;;;;;;;;27.48;38.40;99377.25;2091316;28;20338;-55
2022/08/03 04:39:32;;;;;;;;;;;;;;;27.50;38.46;99382.56;2093670;28;20227;-56
2022/08/03 04:40:33;;;;;;;;;;;;;;;27.48;38.43;99381.94;2092784;28;19920;-56
2022/08/03 04:41:34;;;;;;;;;;;;;;;27.48;38.60;99376.41;2087221;28;19947;-56
2022/08/03 04:42:36;;;;;;;;;;;;;;;27.47;38.59;99381.09;2091982;28;19938;-56
2022/08/03 04:43:39;;;;;;;;;;;;;;;27.48;38.62;99390.25;2087616;28;20204;-55
2022/08/03 04:44:41;;;;;;;;;;;;;;;27.47;38.57;99383.03;2093633;28;19916;-55
2022/08/03 04:45:42;;;;;;;;;;;;;;;27.47;38.37;99383.03;2089353;28;20313;-56
2022/08/03 04:46:43;;;;;;;;;;;;;;;27.49;38.45;99391.97;2090822;28;20297;-55
2022/08/03 04:47:43;;;;;;;;;;;;;;;27.47;38.67;99388.56;2091105;28;20081;-56
2022/08/03 04:48:45;;;;;;;;;;;;;;;27.48;38.56;99391.09;2087642;28;19916;-55
2022/08/03 04:49:45;;;;;;;;;;;;;;;27.48;38.45;99390.25;2094124;28;20036;-56
2022/08/03 04:50:46;;;;;;;;;;;;;;;27.48;38.62;99390.25;2091838;28;20223;-55
2022/08/03 04:51:47;;;;;;;;;;;;;;;27.48;38.67;99390.25;2092821;28;19916;-55
2022/08/03 04:52:48;;;;;;;;;;;;;;;27.45;38.69;99390.69;2090524;28;19920;-54
2022/08/03 04:53:48;;;;;;;;;;;;;;;27.47;38.63;99394.94;2092346;28;20049;-55
2022/08/03 04:54:48;;;;;;;;;;;;;;;27.47;38.55;99388.56;2093866;28;19960;-55
2022/08/03 04:55:49;;;;;;;;;;;;;;;27.47;38.72;99392.16;2094268;28;19920;-56
2022/08/03 04:56:49;;;;;;;;;;;;;;;27.47;38.51;99394.09;2092309;28;19916;-56
2022/08/03 04:57:49;;;;;;;;;;;;;;;27.46;38.44;99390.47;2093620;28;19912;-56
2022/08/03 04:58:49;;;;;;;;;;;;;;;27.47;38.41;99388.56;2091955;28;19927;-56
2022/08/03 04:59:53;;;;;;;;;;;;;;;27.46;38.45;99389.63;2092971;28;19946;-55
2022/08/03 05:00:53;;;;;;;;;;;;;;;27.46;38.51;99397.91;2095461;28;19965;-55
2022/08/03 05:01:53;;;;;;;;;;;;;;;27.46;38.72;99397.91;2088361;28;19974;-55
2022/08/03 05:02:54;;;;;;;;;;;;;;;27.46;38.47;99398.75;2092534;28;19958;-56
2022/08/03 05:03:54;;;;;;;;;;;;;;;27.46;38.38;99397.91;2088404;28;20009;-55
2022/08/03 05:04:54;;;;;;;;;;;;;;;27.45;38.59;99401.78;2090287;28;19916;-55
2022/08/03 05:05:55;;;;;;;;;;;;;;;27.44;38.43;99402.81;2091662;28;19923;-56
2022/08/03 05:06:55;;;;;;;;;;;;;;;27.44;38.64;99402.81;2087483;28;19912;-56
2022/08/03 05:07:55;;;;;;;;;;;;;;;27.44;38.73;99405.59;2091408;28;19955;-55
2022/08/03 05:08:56;;;;;;;;;;;;;;;27.44;38.51;99402.81;2090601;28;19923;-56
2022/08/03 05:09:56;;;;;;;;;;;;;;;27.43;38.46;99404.75;2089079;28;19960;-55
2022/08/03 05:10:57;;;;;;;;;;;;;;;27.44;38.59;99405.59;2093297;28;19920;-54
2022/08/03 05:11:57;;;;;;;;;;;;;;;27.44;38.45;99411.13;2087237;28;19934;-56
2022/08/03 05:12:57;;;;;;;;;;;;;;;27.44;38.58;99405.59;2094643;28;20686;-54
2022/08/03 05:13:57;;;;;;;;;;;;;;;27.43;38.67;99404.75;2092293;28;19927;-56
2022/08/03 05:14:58;;;;;;;;;;;;;;;27.44;38.55;99408.34;2092381;28;19916;-53
2022/08/03 05:15:58;;;;;;;;;;;;;;;27.43;38.62;99409.44;2094271;28;19933;-55
2022/08/03 05:16:58;;;;;;;;;;;;;;;27.44;38.44;99411.13;2093000;28;19974;-55
2022/08/03 05:17:59;;;;;;;;;;;;;;;27.43;38.63;99406.69;2094805;28;20253;-56
2022/08/03 05:18:59;;;;;;;;;;;;;;;27.44;38.39;99408.34;2092372;28;19979;-55
2022/08/03 05:20:00;;;;;;;;;;;;;;;27.44;38.61;99411.13;2093667;28;20602;-56
2022/08/03 05:21:00;;;;;;;;;;;;;;;27.43;38.50;99410.28;2094416;28;19908;-55
2022/08/03 05:22:00;;;;;;;;;;;;;;;27.44;38.78;99405.59;2092677;28;20273;-55
2022/08/03 05:23:02;;;;;;;;;;;;;;;27.44;38.64;99405.59;2092551;28;19916;-56
2022/08/03 05:24:03;;;;;;;;;;;;;;;27.44;38.68;99409.22;2092819;28;19986;-56
2022/08/03 05:25:04;;;;;;;;;;;;;;;27.43;38.80;99406.69;2089837;28;20111;-56
2022/08/03 05:26:04;;;;;;;;;;;;;;;27.43;38.86;99403.91;2093390;28;19919;-55
2022/08/03 05:27:04;;;;;;;;;;;;;;;27.44;38.57;99405.59;2092474;28;20678;-56
2022/08/03 05:28:04;;;;;;;;;;;;;;;27.43;38.80;99409.44;2093188;28;19927;-55
2022/08/03 05:29:05;;;;;;;;;;;;;;;27.43;38.76;99409.44;2088398;28;20413;-56
2022/08/03 05:30:05;;;;;;;;;;;;;;;27.43;38.59;99409.44;2093289;28;19916;-55
2022/08/03 05:31:06;;;;;;;;;;;;;;;27.43;38.89;99414.97;2094461;28;19916;-56
2022/08/03 05:32:06;;;;;;;;;;;;;;;27.43;38.67;99414.97;2092998;28;20376;-55
2022/08/03 05:33:06;;;;;;;;;;;;;;;27.43;38.62;99413.06;2093284;28;20023;-56
2022/08/03 05:34:07;;;;;;;;;;;;;;;27.43;38.89;99414.97;2094808;28;19908;-56
2022/08/03 05:35:07;;;;;;;;;;;;;;;27.44;38.93;99411.13;2090874;28;20348;-57
2022/08/03 05:36:07;;;;;;;;;;;;;;;27.42;38.82;99407.75;2094770;28;19927;-56
2022/08/03 05:37:08;;;;;;;;;;;;;;;27.42;38.74;99411.38;2095818;28;19916;-56
2022/08/03 05:38:08;;;;;;;;;;;;;;;27.42;38.95;99414.13;2092631;28;19946;-56
2022/08/03 05:39:08;;;;;;;;;;;;;;;27.42;38.82;99414.13;2093853;28;20695;-56